sensor_id;sensor_type;location;lat;lon;timestamp;P1;durP1;ratioP1;P2;durP2;ratioP2
3101;SDS011;1561;42.666;23.392;2023-11-21T00:01:17;10.77;;;7.23;;
3101;SDS011;1561;42.666;23.392;2023-11-21T00:03:49;7.83;;;6.83;;
3101;SDS011;1561;42.666;23.392;2023-11-21T00:06:25;15.33;;;9.23;;
3101;SDS011;1561;42.666;23.392;2023-11-21T00:08:58;14.23;;;8.30;;
3101;SDS011;1561;42.666;23.392;2023-11-21T00:11:26;14.33;;;9.27;;
3101;SDS011;1561;42.666;23.392;2023-11-21T00:13:57;14.03;;;9.23;;
3101;SDS011;1561;42.666;23.392;2023-11-21T00:16:35;11.63;;;8.27;;
3101;SDS011;1561;42.666;23.392;2023-11-21T00:19:06;13.50;;;8.33;;
3101;SDS011;1561;42.666;23.392;2023-11-21T00:21:38;16.47;;;9.67;;
3101;SDS011;1561;42.666;23.392;2023-11-21T00:24:21;19.23;;;10.80;;
3101;SDS011;1561;42.666;23.392;2023-11-21T00:26:54;18.53;;;10.83;;
3101;SDS011;1561;42.666;23.392;2023-11-21T00:29:25;17.03;;;11.17;;
3101;SDS011;1561;42.666;23.392;2023-11-21T00:31:53;18.23;;;12.70;;
3101;SDS011;1561;42.666;23.392;2023-11-21T00:34:30;18.07;;;11.23;;
3101;SDS011;1561;42.666;23.392;2023-11-21T00:36:59;20.47;;;12.10;;
3101;SDS011;1561;42.666;23.392;2023-11-21T00:39:30;15.20;;;11.40;;
3101;SDS011;1561;42.666;23.392;2023-11-21T00:42:10;17.50;;;11.60;;
3101;SDS011;1561;42.666;23.392;2023-11-21T00:44:48;18.13;;;13.23;;
3101;SDS011;1561;42.666;23.392;2023-11-21T00:47:24;22.47;;;13.70;;
3101;SDS011;1561;42.666;23.392;2023-11-21T00:50:00;19.77;;;14.47;;
3101;SDS011;1561;42.666;23.392;2023-11-21T00:52:28;20.47;;;13.80;;
3101;SDS011;1561;42.666;23.392;2023-11-21T00:55:03;25.50;;;17.13;;
3101;SDS011;1561;42.666;23.392;2023-11-21T00:57:43;26.47;;;14.63;;
3101;SDS011;1561;42.666;23.392;2023-11-21T01:00:16;32.27;;;19.80;;
3101;SDS011;1561;42.666;23.392;2023-11-21T01:02:53;24.90;;;17.37;;
3101;SDS011;1561;42.666;23.392;2023-11-21T01:05:36;25.40;;;16.80;;
3101;SDS011;1561;42.666;23.392;2023-11-21T01:08:04;28.60;;;18.00;;
3101;SDS011;1561;42.666;23.392;2023-11-21T01:10:43;30.50;;;19.67;;
3101;SDS011;1561;42.666;23.392;2023-11-21T01:13:12;28.40;;;17.90;;
3101;SDS011;1561;42.666;23.392;2023-11-21T01:15:49;29.40;;;18.37;;
3101;SDS011;1561;42.666;23.392;2023-11-21T01:18:21;28.67;;;20.20;;
3101;SDS011;1561;42.666;23.392;2023-11-21T01:21:03;35.43;;;21.87;;
3101;SDS011;1561;42.666;23.392;2023-11-21T01:23:32;39.77;;;24.60;;
3101;SDS011;1561;42.666;23.392;2023-11-21T01:26:04;49.43;;;28.17;;
3101;SDS011;1561;42.666;23.392;2023-11-21T01:28:38;52.23;;;28.70;;
3101;SDS011;1561;42.666;23.392;2023-11-21T01:31:07;50.97;;;32.40;;
3101;SDS011;1561;42.666;23.392;2023-11-21T01:33:38;54.40;;;31.73;;
3101;SDS011;1561;42.666;23.392;2023-11-21T01:36:15;49.17;;;29.23;;
3101;SDS011;1561;42.666;23.392;2023-11-21T01:38:48;44.77;;;28.50;;
3101;SDS011;1561;42.666;23.392;2023-11-21T01:41:18;48.53;;;31.07;;
3101;SDS011;1561;42.666;23.392;2023-11-21T01:44:02;52.17;;;30.53;;
3101;SDS011;1561;42.666;23.392;2023-11-21T01:46:32;50.43;;;30.60;;
3101;SDS011;1561;42.666;23.392;2023-11-21T01:49:05;52.13;;;31.90;;
3101;SDS011;1561;42.666;23.392;2023-11-21T01:51:46;69.47;;;35.37;;
3101;SDS011;1561;42.666;23.392;2023-11-21T01:54:25;58.93;;;35.60;;
3101;SDS011;1561;42.666;23.392;2023-11-21T01:57:09;50.73;;;32.83;;
3101;SDS011;1561;42.666;23.392;2023-11-21T01:59:43;53.70;;;33.30;;
3101;SDS011;1561;42.666;23.392;2023-11-21T02:02:13;55.07;;;33.60;;
3101;SDS011;1561;42.666;23.392;2023-11-21T02:04:56;50.53;;;31.63;;
3101;SDS011;1561;42.666;23.392;2023-11-21T02:07:28;57.17;;;33.40;;
3101;SDS011;1561;42.666;23.392;2023-11-21T02:10:04;53.33;;;33.23;;
3101;SDS011;1561;42.666;23.392;2023-11-21T02:12:43;57.37;;;34.43;;
3101;SDS011;1561;42.666;23.392;2023-11-21T02:15:17;52.30;;;32.20;;
3101;SDS011;1561;42.666;23.392;2023-11-21T02:17:48;57.57;;;33.80;;
3101;SDS011;1561;42.666;23.392;2023-11-21T02:20:20;53.30;;;31.97;;
3101;SDS011;1561;42.666;23.392;2023-11-21T02:22:56;55.70;;;31.97;;
3101;SDS011;1561;42.666;23.392;2023-11-21T02:25:34;45.27;;;30.53;;
3101;SDS011;1561;42.666;23.392;2023-11-21T02:28:09;51.43;;;30.17;;
3101;SDS011;1561;42.666;23.392;2023-11-21T02:30:42;40.77;;;25.87;;
3101;SDS011;1561;42.666;23.392;2023-11-21T02:33:32;36.57;;;22.93;;
3101;SDS011;1561;42.666;23.392;2023-11-21T02:36:11;38.27;;;22.03;;
3101;SDS011;1561;42.666;23.392;2023-11-21T02:41:40;39.40;;;24.70;;
3101;SDS011;1561;42.666;23.392;2023-11-21T02:44:13;41.73;;;25.77;;
3101;SDS011;1561;42.666;23.392;2023-11-21T02:46:51;38.70;;;25.83;;
3101;SDS011;1561;42.666;23.392;2023-11-21T02:49:20;43.90;;;23.60;;
3101;SDS011;1561;42.666;23.392;2023-11-21T02:51:54;35.73;;;25.30;;
3101;SDS011;1561;42.666;23.392;2023-11-21T03:00:34;36.90;;;25.30;;
3101;SDS011;1561;42.666;23.392;2023-11-21T03:03:04;41.47;;;26.20;;
3101;SDS011;1561;42.666;23.392;2023-11-21T03:05:38;39.47;;;26.50;;
3101;SDS011;1561;42.666;23.392;2023-11-21T03:08:11;42.37;;;26.53;;
3101;SDS011;1561;42.666;23.392;2023-11-21T03:11:09;38.60;;;25.10;;
3101;SDS011;1561;42.666;23.392;2023-11-21T03:13:41;42.13;;;26.03;;
3101;SDS011;1561;42.666;23.392;2023-11-21T03:16:48;41.57;;;25.40;;
3101;SDS011;1561;42.666;23.392;2023-11-21T03:19:31;36.77;;;23.97;;
3101;SDS011;1561;42.666;23.392;2023-11-21T03:22:03;35.93;;;24.40;;
3101;SDS011;1561;42.666;23.392;2023-11-21T03:24:39;34.00;;;23.43;;
3101;SDS011;1561;42.666;23.392;2023-11-21T03:27:20;33.00;;;21.70;;
3101;SDS011;1561;42.666;23.392;2023-11-21T03:29:50;36.87;;;22.93;;
3101;SDS011;1561;42.666;23.392;2023-11-21T03:32:42;37.17;;;24.57;;
3101;SDS011;1561;42.666;23.392;2023-11-21T03:35:19;44.73;;;25.90;;
3101;SDS011;1561;42.666;23.392;2023-11-21T03:38:29;43.53;;;24.23;;
3101;SDS011;1561;42.666;23.392;2023-11-21T03:44:07;43.03;;;25.07;;
3101;SDS011;1561;42.666;23.392;2023-11-21T03:46:36;42.00;;;24.67;;
3101;SDS011;1561;42.666;23.392;2023-11-21T03:49:09;40.10;;;24.57;;
3101;SDS011;1561;42.666;23.392;2023-11-21T03:51:39;33.83;;;24.93;;
3101;SDS011;1561;42.666;23.392;2023-11-21T03:54:25;41.60;;;23.33;;
3101;SDS011;1561;42.666;23.392;2023-11-21T03:57:08;36.70;;;21.30;;
3101;SDS011;1561;42.666;23.392;2023-11-21T04:02:22;31.67;;;20.67;;
3101;SDS011;1561;42.666;23.392;2023-11-21T04:04:59;32.83;;;19.90;;
3101;SDS011;1561;42.666;23.392;2023-11-21T04:07:50;41.23;;;26.47;;
3101;SDS011;1561;42.666;23.392;2023-11-21T04:10:22;35.60;;;23.20;;
3101;SDS011;1561;42.666;23.392;2023-11-21T04:12:53;30.50;;;20.87;;
3101;SDS011;1561;42.666;23.392;2023-11-21T04:18:26;34.90;;;22.90;;
3101;SDS011;1561;42.666;23.392;2023-11-21T04:20:54;24.97;;;17.07;;
3101;SDS011;1561;42.666;23.392;2023-11-21T04:23:24;19.10;;;15.20;;
3101;SDS011;1561;42.666;23.392;2023-11-21T04:25:57;20.83;;;14.33;;
3101;SDS011;1561;42.666;23.392;2023-11-21T04:28:41;24.13;;;14.30;;
3101;SDS011;1561;42.666;23.392;2023-11-21T04:31:11;20.87;;;14.67;;
3101;SDS011;1561;42.666;23.392;2023-11-21T04:33:56;21.93;;;13.53;;
3101;SDS011;1561;42.666;23.392;2023-11-21T04:36:30;19.30;;;12.30;;
3101;SDS011;1561;42.666;23.392;2023-11-21T04:39:10;17.90;;;12.50;;
3101;SDS011;1561;42.666;23.392;2023-11-21T04:42:03;24.23;;;13.00;;
3101;SDS011;1561;42.666;23.392;2023-11-21T04:44:50;20.20;;;12.23;;
3101;SDS011;1561;42.666;23.392;2023-11-21T04:47:33;16.20;;;11.30;;
3101;SDS011;1561;42.666;23.392;2023-11-21T04:50:18;20.00;;;13.33;;
3101;SDS011;1561;42.666;23.392;2023-11-21T04:53:00;15.27;;;11.33;;
3101;SDS011;1561;42.666;23.392;2023-11-21T04:55:41;19.43;;;11.30;;
3101;SDS011;1561;42.666;23.392;2023-11-21T04:58:25;21.23;;;13.00;;
3101;SDS011;1561;42.666;23.392;2023-11-21T05:04:01;22.10;;;14.17;;
3101;SDS011;1561;42.666;23.392;2023-11-21T05:06:43;22.67;;;14.80;;
3101;SDS011;1561;42.666;23.392;2023-11-21T05:09:13;21.77;;;13.97;;
3101;SDS011;1561;42.666;23.392;2023-11-21T05:11:48;23.97;;;13.73;;
3101;SDS011;1561;42.666;23.392;2023-11-21T05:14:33;21.73;;;14.80;;
3101;SDS011;1561;42.666;23.392;2023-11-21T05:17:28;21.97;;;14.70;;
3101;SDS011;1561;42.666;23.392;2023-11-21T05:20:27;19.53;;;13.97;;
3101;SDS011;1561;42.666;23.392;2023-11-21T05:23:11;22.90;;;15.30;;
3101;SDS011;1561;42.666;23.392;2023-11-21T05:25:43;22.80;;;14.57;;
3101;SDS011;1561;42.666;23.392;2023-11-21T05:28:17;20.10;;;15.00;;
3101;SDS011;1561;42.666;23.392;2023-11-21T05:30:45;24.30;;;16.17;;
3101;SDS011;1561;42.666;23.392;2023-11-21T05:33:19;20.90;;;15.37;;
3101;SDS011;1561;42.666;23.392;2023-11-21T05:35:52;23.80;;;16.73;;
3101;SDS011;1561;42.666;23.392;2023-11-21T05:44:33;25.27;;;17.00;;
3101;SDS011;1561;42.666;23.392;2023-11-21T05:47:03;29.13;;;19.17;;
3101;SDS011;1561;42.666;23.392;2023-11-21T05:49:36;31.90;;;19.40;;
3101;SDS011;1561;42.666;23.392;2023-11-21T05:52:22;28.97;;;18.80;;
3101;SDS011;1561;42.666;23.392;2023-11-21T05:55:14;26.80;;;18.83;;
3101;SDS011;1561;42.666;23.392;2023-11-21T05:57:51;27.30;;;19.10;;
3101;SDS011;1561;42.666;23.392;2023-11-21T06:00:39;29.83;;;19.43;;
3101;SDS011;1561;42.666;23.392;2023-11-21T06:03:14;34.10;;;21.83;;
3101;SDS011;1561;42.666;23.392;2023-11-21T06:05:45;36.90;;;22.87;;
3101;SDS011;1561;42.666;23.392;2023-11-21T06:08:40;29.57;;;16.23;;
3101;SDS011;1561;42.666;23.392;2023-11-21T06:11:27;23.20;;;13.77;;
3101;SDS011;1561;42.666;23.392;2023-11-21T06:14:25;16.97;;;11.70;;
3101;SDS011;1561;42.666;23.392;2023-11-21T06:17:07;20.03;;;12.67;;
3101;SDS011;1561;42.666;23.392;2023-11-21T06:19:40;21.77;;;12.40;;
3101;SDS011;1561;42.666;23.392;2023-11-21T06:22:16;20.43;;;11.97;;
3101;SDS011;1561;42.666;23.392;2023-11-21T06:24:47;16.10;;;11.30;;
3101;SDS011;1561;42.666;23.392;2023-11-21T06:27:50;18.90;;;10.33;;
3101;SDS011;1561;42.666;23.392;2023-11-21T06:30:34;14.57;;;10.40;;
3101;SDS011;1561;42.666;23.392;2023-11-21T06:33:15;16.27;;;10.97;;
3101;SDS011;1561;42.666;23.392;2023-11-21T06:36:09;19.70;;;12.27;;
3101;SDS011;1561;42.666;23.392;2023-11-21T06:38:41;18.63;;;10.57;;
3101;SDS011;1561;42.666;23.392;2023-11-21T06:41:12;18.03;;;11.10;;
3101;SDS011;1561;42.666;23.392;2023-11-21T06:46:45;12.70;;;10.47;;
3101;SDS011;1561;42.666;23.392;2023-11-21T06:49:25;15.97;;;9.70;;
3101;SDS011;1561;42.666;23.392;2023-11-21T06:52:16;15.10;;;10.27;;
3101;SDS011;1561;42.666;23.392;2023-11-21T06:54:55;14.50;;;10.17;;
3101;SDS011;1561;42.666;23.392;2023-11-21T06:57:45;15.77;;;11.10;;
3101;SDS011;1561;42.666;23.392;2023-11-21T07:03:34;21.23;;;14.70;;
3101;SDS011;1561;42.666;23.392;2023-11-21T07:06:36;17.30;;;12.17;;
3101;SDS011;1561;42.666;23.392;2023-11-21T07:09:19;17.17;;;13.53;;
3101;SDS011;1561;42.666;23.392;2023-11-21T07:11:49;14.60;;;11.63;;
3101;SDS011;1561;42.666;23.392;2023-11-21T07:14:31;16.57;;;13.00;;
3101;SDS011;1561;42.666;23.392;2023-11-21T07:17:03;18.43;;;11.97;;
3101;SDS011;1561;42.666;23.392;2023-11-21T07:19:42;16.67;;;12.70;;
3101;SDS011;1561;42.666;23.392;2023-11-21T07:22:13;17.40;;;13.70;;
3101;SDS011;1561;42.666;23.392;2023-11-21T07:24:54;19.50;;;14.77;;
3101;SDS011;1561;42.666;23.392;2023-11-21T07:27:35;19.77;;;14.80;;
3101;SDS011;1561;42.666;23.392;2023-11-21T07:30:15;18.37;;;13.23;;
3101;SDS011;1561;42.666;23.392;2023-11-21T07:32:44;19.37;;;13.70;;
3101;SDS011;1561;42.666;23.392;2023-11-21T07:38:11;17.13;;;13.50;;
3101;SDS011;1561;42.666;23.392;2023-11-21T07:40:44;17.83;;;12.23;;
3101;SDS011;1561;42.666;23.392;2023-11-21T07:43:17;18.70;;;13.17;;
3101;SDS011;1561;42.666;23.392;2023-11-21T07:45:45;18.67;;;13.13;;
3101;SDS011;1561;42.666;23.392;2023-11-21T07:48:16;26.07;;;17.50;;
3101;SDS011;1561;42.666;23.392;2023-11-21T07:53:45;31.50;;;19.27;;
3101;SDS011;1561;42.666;23.392;2023-11-21T07:56:16;25.23;;;20.17;;
3101;SDS011;1561;42.666;23.392;2023-11-21T07:58:46;24.30;;;19.90;;
3101;SDS011;1561;42.666;23.392;2023-11-21T08:01:18;27.07;;;19.27;;
3101;SDS011;1561;42.666;23.392;2023-11-21T08:03:52;28.70;;;20.13;;
3101;SDS011;1561;42.666;23.392;2023-11-21T08:12:45;24.73;;;20.07;;
3101;SDS011;1561;42.666;23.392;2023-11-21T08:15:21;21.90;;;17.70;;
3101;SDS011;1561;42.666;23.392;2023-11-21T08:18:03;30.40;;;21.97;;
3101;SDS011;1561;42.666;23.392;2023-11-21T08:20:34;30.73;;;20.77;;
3101;SDS011;1561;42.666;23.392;2023-11-21T08:23:19;33.23;;;20.50;;
3101;SDS011;1561;42.666;23.392;2023-11-21T08:25:58;36.40;;;22.90;;
3101;SDS011;1561;42.666;23.392;2023-11-21T08:28:34;28.67;;;18.50;;
3101;SDS011;1561;42.666;23.392;2023-11-21T08:31:26;25.60;;;17.90;;
3101;SDS011;1561;42.666;23.392;2023-11-21T08:34:12;23.70;;;16.77;;
3101;SDS011;1561;42.666;23.392;2023-11-21T08:36:53;30.10;;;17.47;;
3101;SDS011;1561;42.666;23.392;2023-11-21T08:39:42;28.93;;;16.67;;
3101;SDS011;1561;42.666;23.392;2023-11-21T08:42:20;23.57;;;16.77;;
3101;SDS011;1561;42.666;23.392;2023-11-21T08:45:03;21.03;;;15.00;;
3101;SDS011;1561;42.666;23.392;2023-11-21T08:47:46;29.83;;;15.07;;
3101;SDS011;1561;42.666;23.392;2023-11-21T08:50:15;24.00;;;16.30;;
3101;SDS011;1561;42.666;23.392;2023-11-21T08:52:53;20.13;;;14.53;;
3101;SDS011;1561;42.666;23.392;2023-11-21T08:55:56;22.10;;;15.80;;
3101;SDS011;1561;42.666;23.392;2023-11-21T09:01:12;26.23;;;19.20;;
3101;SDS011;1561;42.666;23.392;2023-11-21T09:03:41;23.00;;;16.77;;
3101;SDS011;1561;42.666;23.392;2023-11-21T09:06:56;23.13;;;15.47;;
3101;SDS011;1561;42.666;23.392;2023-11-21T09:09:54;21.63;;;16.77;;
3101;SDS011;1561;42.666;23.392;2023-11-21T09:12:32;19.80;;;17.70;;
3101;SDS011;1561;42.666;23.392;2023-11-21T09:18:22;28.33;;;16.77;;
3101;SDS011;1561;42.666;23.392;2023-11-21T09:20:55;23.67;;;19.03;;
3101;SDS011;1561;42.666;23.392;2023-11-21T09:23:24;24.50;;;17.50;;
3101;SDS011;1561;42.666;23.392;2023-11-21T09:26:02;25.27;;;18.10;;
3101;SDS011;1561;42.666;23.392;2023-11-21T09:28:36;23.13;;;16.87;;
3101;SDS011;1561;42.666;23.392;2023-11-21T09:31:13;26.03;;;18.30;;
3101;SDS011;1561;42.666;23.392;2023-11-21T09:33:48;27.00;;;17.80;;
3101;SDS011;1561;42.666;23.392;2023-11-21T09:36:24;23.83;;;16.97;;
3101;SDS011;1561;42.666;23.392;2023-11-21T09:38:58;28.23;;;19.40;;
3101;SDS011;1561;42.666;23.392;2023-11-21T09:41:40;28.53;;;18.77;;
3101;SDS011;1561;42.666;23.392;2023-11-21T09:47:23;21.70;;;18.20;;
3101;SDS011;1561;42.666;23.392;2023-11-21T09:49:55;24.60;;;17.97;;
3101;SDS011;1561;42.666;23.392;2023-11-21T09:52:55;28.30;;;19.50;;
3101;SDS011;1561;42.666;23.392;2023-11-21T09:55:28;23.10;;;18.80;;
3101;SDS011;1561;42.666;23.392;2023-11-21T09:58:03;25.07;;;18.90;;
3101;SDS011;1561;42.666;23.392;2023-11-21T10:00:39;26.20;;;19.27;;
3101;SDS011;1561;42.666;23.392;2023-11-21T10:05:58;23.67;;;18.33;;
3101;SDS011;1561;42.666;23.392;2023-11-21T10:08:45;22.10;;;16.93;;
3101;SDS011;1561;42.666;23.392;2023-11-21T10:11:16;21.40;;;17.37;;
3101;SDS011;1561;42.666;23.392;2023-11-21T10:13:51;22.83;;;18.20;;
3101;SDS011;1561;42.666;23.392;2023-11-21T10:16:33;27.43;;;17.20;;
3101;SDS011;1561;42.666;23.392;2023-11-21T10:19:06;23.90;;;18.23;;
3101;SDS011;1561;42.666;23.392;2023-11-21T10:21:41;17.00;;;14.73;;
3101;SDS011;1561;42.666;23.392;2023-11-21T10:27:00;22.60;;;16.23;;
3101;SDS011;1561;42.666;23.392;2023-11-21T10:29:30;21.33;;;15.90;;
3101;SDS011;1561;42.666;23.392;2023-11-21T10:32:17;21.40;;;15.53;;
3101;SDS011;1561;42.666;23.392;2023-11-21T10:35:01;20.20;;;16.03;;
3101;SDS011;1561;42.666;23.392;2023-11-21T10:37:35;20.67;;;15.83;;
3101;SDS011;1561;42.666;23.392;2023-11-21T10:40:09;32.17;;;18.17;;
3101;SDS011;1561;42.666;23.392;2023-11-21T10:42:44;17.00;;;14.70;;
3101;SDS011;1561;42.666;23.392;2023-11-21T10:45:29;14.67;;;13.07;;
3101;SDS011;1561;42.666;23.392;2023-11-21T10:48:12;17.80;;;13.67;;
3101;SDS011;1561;42.666;23.392;2023-11-21T10:50:54;18.83;;;13.53;;
3101;SDS011;1561;42.666;23.392;2023-11-21T10:53:30;19.50;;;16.07;;
3101;SDS011;1561;42.666;23.392;2023-11-21T10:56:08;24.50;;;14.63;;
3101;SDS011;1561;42.666;23.392;2023-11-21T10:59:00;23.20;;;14.50;;
3101;SDS011;1561;42.666;23.392;2023-11-21T11:01:34;17.93;;;14.63;;
3101;SDS011;1561;42.666;23.392;2023-11-21T11:04:04;18.40;;;14.97;;
3101;SDS011;1561;42.666;23.392;2023-11-21T11:09:38;19.87;;;15.77;;
3101;SDS011;1561;42.666;23.392;2023-11-21T11:12:06;18.93;;;14.93;;
3101;SDS011;1561;42.666;23.392;2023-11-21T11:14:41;19.60;;;15.40;;
3101;SDS011;1561;42.666;23.392;2023-11-21T11:17:12;18.77;;;14.43;;
3101;SDS011;1561;42.666;23.392;2023-11-21T11:19:44;24.10;;;15.40;;
3101;SDS011;1561;42.666;23.392;2023-11-21T11:25:28;24.20;;;17.23;;
3101;SDS011;1561;42.666;23.392;2023-11-21T11:28:12;18.90;;;16.03;;
3101;SDS011;1561;42.666;23.392;2023-11-21T11:30:51;18.80;;;15.10;;
3101;SDS011;1561;42.666;23.392;2023-11-21T11:33:43;23.10;;;16.47;;
3101;SDS011;1561;42.666;23.392;2023-11-21T11:36:28;20.03;;;14.37;;
3101;SDS011;1561;42.666;23.392;2023-11-21T11:39:05;21.77;;;14.20;;
3101;SDS011;1561;42.666;23.392;2023-11-21T11:42:06;26.60;;;15.70;;
3101;SDS011;1561;42.666;23.392;2023-11-21T11:44:48;28.80;;;15.57;;
3101;SDS011;1561;42.666;23.392;2023-11-21T11:47:21;22.33;;;14.73;;
3101;SDS011;1561;42.666;23.392;2023-11-21T11:50:04;23.40;;;15.43;;
3101;SDS011;1561;42.666;23.392;2023-11-21T11:52:43;21.23;;;15.30;;
3101;SDS011;1561;42.666;23.392;2023-11-21T11:55:27;27.17;;;19.27;;
3101;SDS011;1561;42.666;23.392;2023-11-21T11:57:59;27.07;;;19.97;;
3101;SDS011;1561;42.666;23.392;2023-11-21T12:00:33;27.17;;;19.37;;
3101;SDS011;1561;42.666;23.392;2023-11-21T12:03:41;27.73;;;19.90;;
3101;SDS011;1561;42.666;23.392;2023-11-21T12:06:15;35.63;;;22.10;;
3101;SDS011;1561;42.666;23.392;2023-11-21T12:09:00;30.33;;;22.03;;
3101;SDS011;1561;42.666;23.392;2023-11-21T12:11:38;37.87;;;23.60;;
3101;SDS011;1561;42.666;23.392;2023-11-21T12:14:37;35.10;;;25.97;;
3101;SDS011;1561;42.666;23.392;2023-11-21T12:17:05;34.83;;;25.40;;
3101;SDS011;1561;42.666;23.392;2023-11-21T12:19:55;33.47;;;25.70;;
3101;SDS011;1561;42.666;23.392;2023-11-21T12:22:43;35.33;;;26.57;;
3101;SDS011;1561;42.666;23.392;2023-11-21T12:25:14;36.60;;;26.17;;
3101;SDS011;1561;42.666;23.392;2023-11-21T12:28:03;31.77;;;24.90;;
3101;SDS011;1561;42.666;23.392;2023-11-21T12:30:33;37.90;;;25.93;;
3101;SDS011;1561;42.666;23.392;2023-11-21T12:33:04;39.90;;;29.53;;
3101;SDS011;1561;42.666;23.392;2023-11-21T12:35:42;37.57;;;27.57;;
3101;SDS011;1561;42.666;23.392;2023-11-21T12:38:23;38.30;;;27.30;;
3101;SDS011;1561;42.666;23.392;2023-11-21T12:40:55;42.03;;;28.10;;
3101;SDS011;1561;42.666;23.392;2023-11-21T12:47:05;42.57;;;28.97;;
3101;SDS011;1561;42.666;23.392;2023-11-21T12:50:01;39.03;;;29.30;;
3101;SDS011;1561;42.666;23.392;2023-11-21T12:53:16;38.50;;;27.27;;
3101;SDS011;1561;42.666;23.392;2023-11-21T12:56:33;41.10;;;27.43;;
3101;SDS011;1561;42.666;23.392;2023-11-21T12:59:33;38.10;;;27.20;;
3101;SDS011;1561;42.666;23.392;2023-11-21T13:02:01;40.37;;;26.97;;
3101;SDS011;1561;42.666;23.392;2023-11-21T13:04:33;42.53;;;27.73;;
3101;SDS011;1561;42.666;23.392;2023-11-21T13:07:05;35.30;;;27.63;;
3101;SDS011;1561;42.666;23.392;2023-11-21T13:09:40;45.87;;;28.87;;
3101;SDS011;1561;42.666;23.392;2023-11-21T13:15:13;42.43;;;29.37;;
3101;SDS011;1561;42.666;23.392;2023-11-21T13:17:57;41.00;;;28.70;;
3101;SDS011;1561;42.666;23.392;2023-11-21T13:20:40;43.57;;;30.70;;
3101;SDS011;1561;42.666;23.392;2023-11-21T13:23:12;44.23;;;30.77;;
3101;SDS011;1561;42.666;23.392;2023-11-21T13:25:54;44.60;;;29.90;;
3101;SDS011;1561;42.666;23.392;2023-11-21T13:28:31;42.00;;;29.57;;
3101;SDS011;1561;42.666;23.392;2023-11-21T13:31:21;44.60;;;31.40;;
3101;SDS011;1561;42.666;23.392;2023-11-21T13:34:21;44.67;;;30.60;;
3101;SDS011;1561;42.666;23.392;2023-11-21T13:36:52;38.77;;;29.30;;
3101;SDS011;1561;42.666;23.392;2023-11-21T13:39:27;41.63;;;30.17;;
3101;SDS011;1561;42.666;23.392;2023-11-21T13:41:57;45.43;;;31.47;;
3101;SDS011;1561;42.666;23.392;2023-11-21T13:44:30;50.17;;;29.20;;
3101;SDS011;1561;42.666;23.392;2023-11-21T13:47:30;49.33;;;31.30;;
3101;SDS011;1561;42.666;23.392;2023-11-21T13:49:59;38.53;;;30.17;;
3101;SDS011;1561;42.666;23.392;2023-11-21T13:52:48;43.60;;;33.00;;
3101;SDS011;1561;42.666;23.392;2023-11-21T13:55:20;54.00;;;34.37;;
3101;SDS011;1561;42.666;23.392;2023-11-21T13:57:55;48.17;;;33.60;;
3101;SDS011;1561;42.666;23.392;2023-11-21T14:00:44;43.97;;;30.87;;
3101;SDS011;1561;42.666;23.392;2023-11-21T14:03:33;48.63;;;32.33;;
3101;SDS011;1561;42.666;23.392;2023-11-21T14:06:10;48.97;;;33.00;;
3101;SDS011;1561;42.666;23.392;2023-11-21T14:08:47;47.33;;;33.20;;
3101;SDS011;1561;42.666;23.392;2023-11-21T14:11:31;45.07;;;30.70;;
3101;SDS011;1561;42.666;23.392;2023-11-21T14:14:16;48.93;;;32.70;;
3101;SDS011;1561;42.666;23.392;2023-11-21T14:16:56;42.93;;;31.73;;
3101;SDS011;1561;42.666;23.392;2023-11-21T14:19:29;45.80;;;32.17;;
3101;SDS011;1561;42.666;23.392;2023-11-21T14:21:57;47.40;;;30.90;;
3101;SDS011;1561;42.666;23.392;2023-11-21T14:24:40;45.23;;;30.30;;
3101;SDS011;1561;42.666;23.392;2023-11-21T14:27:19;49.80;;;33.73;;
3101;SDS011;1561;42.666;23.392;2023-11-21T14:29:55;45.37;;;32.47;;
3101;SDS011;1561;42.666;23.392;2023-11-21T14:32:27;49.70;;;32.60;;
3101;SDS011;1561;42.666;23.392;2023-11-21T14:35:12;53.13;;;40.87;;
3101;SDS011;1561;42.666;23.392;2023-11-21T14:37:43;59.07;;;34.93;;
3101;SDS011;1561;42.666;23.392;2023-11-21T14:40:20;56.33;;;38.63;;
3101;SDS011;1561;42.666;23.392;2023-11-21T14:43:18;52.70;;;36.10;;
3101;SDS011;1561;42.666;23.392;2023-11-21T14:45:52;52.00;;;36.90;;
3101;SDS011;1561;42.666;23.392;2023-11-21T14:48:29;55.23;;;38.10;;
3101;SDS011;1561;42.666;23.392;2023-11-21T14:54:23;62.40;;;38.30;;
3101;SDS011;1561;42.666;23.392;2023-11-21T14:57:19;55.33;;;35.77;;
3101;SDS011;1561;42.666;23.392;2023-11-21T15:03:15;53.70;;;35.57;;
3101;SDS011;1561;42.666;23.392;2023-11-21T15:06:14;48.77;;;34.07;;
3101;SDS011;1561;42.666;23.392;2023-11-21T15:12:25;56.70;;;38.20;;
3101;SDS011;1561;42.666;23.392;2023-11-21T15:15:18;55.50;;;38.20;;
3101;SDS011;1561;42.666;23.392;2023-11-21T15:17:49;61.37;;;39.23;;
3101;SDS011;1561;42.666;23.392;2023-11-21T15:20:44;58.27;;;40.50;;
3101;SDS011;1561;42.666;23.392;2023-11-21T15:23:26;54.80;;;41.10;;
3101;SDS011;1561;42.666;23.392;2023-11-21T15:26:02;58.13;;;41.47;;
3101;SDS011;1561;42.666;23.392;2023-11-21T15:28:38;66.27;;;40.40;;
3101;SDS011;1561;42.666;23.392;2023-11-21T15:31:10;60.77;;;40.90;;
3101;SDS011;1561;42.666;23.392;2023-11-21T15:33:52;75.90;;;45.67;;
3101;SDS011;1561;42.666;23.392;2023-11-21T15:36:33;69.30;;;45.93;;
3101;SDS011;1561;42.666;23.392;2023-11-21T15:39:10;90.37;;;57.10;;
3101;SDS011;1561;42.666;23.392;2023-11-21T15:41:47;87.50;;;56.17;;
3101;SDS011;1561;42.666;23.392;2023-11-21T15:44:20;89.60;;;51.67;;
3101;SDS011;1561;42.666;23.392;2023-11-21T15:47:06;67.80;;;42.97;;
3101;SDS011;1561;42.666;23.392;2023-11-21T15:49:35;64.30;;;40.17;;
3101;SDS011;1561;42.666;23.392;2023-11-21T15:52:23;60.90;;;41.40;;
3101;SDS011;1561;42.666;23.392;2023-11-21T15:55:54;63.13;;;40.93;;
3101;SDS011;1561;42.666;23.392;2023-11-21T15:58:52;54.57;;;35.30;;
3101;SDS011;1561;42.666;23.392;2023-11-21T16:01:49;53.27;;;33.90;;
3101;SDS011;1561;42.666;23.392;2023-11-21T16:08:21;51.17;;;35.90;;
3101;SDS011;1561;42.666;23.392;2023-11-21T16:10:50;50.43;;;35.87;;
3101;SDS011;1561;42.666;23.392;2023-11-21T16:20:20;54.97;;;37.77;;
3101;SDS011;1561;42.666;23.392;2023-11-21T16:29:55;55.10;;;39.27;;
3101;SDS011;1561;42.666;23.392;2023-11-21T16:32:41;60.03;;;37.20;;
3101;SDS011;1561;42.666;23.392;2023-11-21T16:38:41;57.43;;;38.37;;
3101;SDS011;1561;42.666;23.392;2023-11-21T16:41:34;59.40;;;38.97;;
3101;SDS011;1561;42.666;23.392;2023-11-21T16:47:50;55.53;;;37.50;;
3101;SDS011;1561;42.666;23.392;2023-11-21T16:54:12;60.87;;;38.07;;
3101;SDS011;1561;42.666;23.392;2023-11-21T16:57:15;58.60;;;36.30;;
3101;SDS011;1561;42.666;23.392;2023-11-21T16:59:58;41.20;;;28.63;;
3101;SDS011;1561;42.666;23.392;2023-11-21T17:02:41;43.00;;;29.40;;
3101;SDS011;1561;42.666;23.392;2023-11-21T17:05:56;41.40;;;26.10;;
3101;SDS011;1561;42.666;23.392;2023-11-21T17:21:38;48.37;;;31.60;;
3101;SDS011;1561;42.666;23.392;2023-11-21T17:24:13;53.80;;;32.50;;
3101;SDS011;1561;42.666;23.392;2023-11-21T17:26:53;52.20;;;32.57;;
3101;SDS011;1561;42.666;23.392;2023-11-21T17:33:22;56.93;;;32.70;;
3101;SDS011;1561;42.666;23.392;2023-11-21T17:39:34;57.00;;;32.93;;
3101;SDS011;1561;42.666;23.392;2023-11-21T17:42:18;52.87;;;32.33;;
3101;SDS011;1561;42.666;23.392;2023-11-21T17:44:50;48.43;;;31.67;;
3101;SDS011;1561;42.666;23.392;2023-11-21T17:47:25;45.57;;;31.37;;
3101;SDS011;1561;42.666;23.392;2023-11-21T17:50:08;49.30;;;30.80;;
3101;SDS011;1561;42.666;23.392;2023-11-21T17:52:45;41.60;;;29.13;;
3101;SDS011;1561;42.666;23.392;2023-11-21T17:55:30;45.33;;;29.47;;
3101;SDS011;1561;42.666;23.392;2023-11-21T17:58:04;42.03;;;27.83;;